Time,TemperatureF,DewpointF,PressureIn,WindDirection,WindDirectionDegrees,WindSpeedMPH,WindSpeedGustMPH,Humidity,HourlyPrecipIn,Conditions,Clouds,dailyrainin,SoftwareType,DateUTC
2013-02-17 00:09:00,21.9,8.0,29.78,West,267,2.0,7.0,55,0.00,,,0.00,weatherlink.com 1.10,2013-02-17 05:09:00,
2013-02-17 00:25:00,20.3,6.0,29.77,NW,313,8.0,9.0,53,0.00,,,0.00,weatherlink.com 1.10,2013-02-17 05:25:00,
2013-02-17 00:40:00,20.2,6.0,29.76,West,279,5.0,10.0,54,0.00,,,0.00,weatherlink.com 1.10,2013-02-17 05:40:00,
2013-02-17 00:55:00,20.2,5.0,29.75,WNW,300,3.0,6.0,53,0.00,,,0.00,weatherlink.com 1.10,2013-02-17 05:55:00,
2013-02-17 01:09:00,20.1,5.0,29.74,WNW,297,2.0,7.0,53,0.00,,,0.00,weatherlink.com 1.10,2013-02-17 06:09:00,
2013-02-17 01:25:00,21.3,6.0,29.73,SW,229,3.0,12.0,53,0.00,,,0.00,weatherlink.com 1.10,2013-02-17 06:25:00,
2013-02-17 01:39:00,21.2,7.0,29.74,West,262,7.0,8.0,54,0.00,,,0.00,weatherlink.com 1.10,2013-02-17 06:39:00,
2013-02-17 01:54:00,21.1,7.0,29.75,West,264,3.0,6.0,54,0.00,,,0.00,weatherlink.com 1.10,2013-02-17 06:54:00,
2013-02-17 02:09:00,19.6,4.0,29.74,NW,311,4.0,10.0,52,0.00,,,0.00,weatherlink.com 1.10,2013-02-17 07:09:00,
2013-02-17 02:24:00,19.5,4.0,29.71,NW,324,9.0,12.0,52,0.00,,,0.00,weatherlink.com 1.10,2013-02-17 07:24:00,
2013-02-17 02:40:00,19.2,5.0,29.70,NW,323,8.0,8.0,53,0.00,,,0.00,weatherlink.com 1.10,2013-02-17 07:40:00,
2013-02-17 02:55:00,19.3,5.0,29.70,NNW,327,4.0,7.0,53,0.00,,,0.00,weatherlink.com 1.10,2013-02-17 07:55:00,
2013-02-17 03:10:00,18.8,5.0,29.70,NW,319,2.0,11.0,55,0.00,,,0.00,weatherlink.com 1.10,2013-02-17 08:10:00,
2013-02-17 03:25:00,18.7,4.0,29.70,NW,311,7.0,11.0,54,0.00,,,0.00,weatherlink.com 1.10,2013-02-17 08:25:00,
2013-02-17 03:40:00,18.5,5.0,29.70,West,271,11.0,14.0,55,0.00,,,0.00,weatherlink.com 1.10,2013-02-17 08:40:00,
2013-02-17 03:55:00,18.0,4.0,29.68,WNW,290,4.0,18.0,55,0.00,,,0.00,weatherlink.com 1.10,2013-02-17 08:55:00,
2013-02-17 04:10:00,17.7,5.0,29.66,NNW,329,8.0,15.0,58,0.00,,,0.00,weatherlink.com 1.10,2013-02-17 09:10:00,
2013-02-17 04:25:00,17.6,5.0,29.67,NW,314,5.0,10.0,59,0.00,,,0.00,weatherlink.com 1.10,2013-02-17 09:25:00,
2013-02-17 04:40:00,17.5,6.0,29.66,NW,321,5.0,11.0,62,0.00,,,0.00,weatherlink.com 1.10,2013-02-17 09:40:00,
2013-02-17 04:55:00,17.0,9.0,29.64,North,350,3.0,12.0,70,0.00,,,0.00,weatherlink.com 1.10,2013-02-17 09:55:00,
2013-02-17 05:10:00,16.7,9.0,29.63,NNW,336,9.0,16.0,71,0.00,,,0.00,weatherlink.com 1.10,2013-02-17 10:10:00,
2013-02-17 05:25:00,16.8,8.0,29.64,NW,309,6.0,12.0,69,0.00,,,0.00,weatherlink.com 1.10,2013-02-17 10:25:00,
2013-02-17 05:40:00,16.1,8.0,29.64,NW,306,7.0,17.0,71,0.00,,,0.00,weatherlink.com 1.10,2013-02-17 10:40:00,
2013-02-17 05:55:00,15.2,8.0,29.63,WNW,301,9.0,20.0,74,0.00,,,0.00,weatherlink.com 1.10,2013-02-17 10:55:00,
2013-02-17 06:10:00,14.3,9.0,29.61,WNW,284,15.0,23.0,79,0.00,,,0.00,weatherlink.com 1.10,2013-02-17 11:10:00,
2013-02-17 06:25:00,13.5,10.0,29.60,WNW,289,15.0,23.0,85,0.00,,,0.00,weatherlink.com 1.10,2013-02-17 11:25:00,
2013-02-17 06:40:00,13.0,10.0,29.59,NW,316,9.0,22.0,89,0.00,,,0.00,weatherlink.com 1.10,2013-02-17 11:40:00,
2013-02-17 06:55:00,14.4,12.0,29.57,WSW,258,7.0,17.0,90,0.00,,,0.00,weatherlink.com 1.10,2013-02-17 11:55:00,
2013-02-17 07:10:00,12.8,11.0,29.56,West,272,11.0,23.0,90,0.00,,,0.00,weatherlink.com 1.10,2013-02-17 12:10:00,
2013-02-17 07:25:00,12.6,10.0,29.54,WNW,296,6.0,20.0,90,0.00,,,0.00,weatherlink.com 1.10,2013-02-17 12:25:00,
2013-02-17 07:41:00,12.4,10.0,29.55,NW,310,19.0,24.0,90,0.00,,,0.00,weatherlink.com 1.10,2013-02-17 12:41:00,
2013-02-17 07:56:00,12.5,10.0,29.53,WNW,299,19.0,22.0,90,0.00,,,0.00,weatherlink.com 1.10,2013-02-17 12:56:00,
2013-02-17 08:11:00,14.1,12.0,29.52,WSW,258,11.0,21.0,90,0.00,,,0.00,weatherlink.com 1.10,2013-02-17 13:11:00,
2013-02-17 08:26:00,14.0,12.0,29.50,WNW,298,16.0,24.0,90,0.00,,,0.00,weatherlink.com 1.10,2013-02-17 13:26:00,
2013-02-17 08:41:00,14.0,12.0,29.48,WSW,240,9.0,28.0,90,0.00,,,0.00,weatherlink.com 1.10,2013-02-17 13:41:00,
2013-02-17 08:56:00,14.2,12.0,29.47,NW,311,8.0,24.0,90,0.00,,,0.00,weatherlink.com 1.10,2013-02-17 13:56:00,
2013-02-17 09:11:00,14.4,12.0,29.47,WSW,247,11.0,24.0,89,0.00,,,0.00,weatherlink.com 1.10,2013-02-17 14:11:00,
2013-02-17 09:26:00,14.6,12.0,29.47,South,171,16.0,27.0,89,0.00,,,0.00,weatherlink.com 1.10,2013-02-17 14:26:00,
2013-02-17 09:41:00,14.8,12.0,29.45,NW,311,9.0,29.0,88,0.00,,,0.00,weatherlink.com 1.10,2013-02-17 14:41:00,
2013-02-17 09:56:00,14.8,12.0,29.45,SSW,212,13.0,24.0,88,0.00,,,0.00,weatherlink.com 1.10,2013-02-17 14:56:00,
2013-02-17 10:11:00,14.9,12.0,29.44,WSW,248,13.0,28.0,87,0.00,,,0.00,weatherlink.com 1.10,2013-02-17 15:11:00,
2013-02-17 10:26:00,15.0,11.0,29.44,WSW,245,17.0,26.0,85,0.00,,,0.00,weatherlink.com 1.10,2013-02-17 15:26:00,
2013-02-17 10:41:00,14.8,11.0,29.44,WNW,303,19.0,27.0,84,0.00,,,0.00,weatherlink.com 1.10,2013-02-17 15:41:00,
2013-02-17 10:56:00,14.9,10.0,29.43,SW,230,7.0,30.0,81,0.00,,,0.00,weatherlink.com 1.10,2013-02-17 15:56:00,
2013-02-17 11:12:00,14.9,9.0,29.43,WNW,296,14.0,32.0,76,0.00,,,0.00,weatherlink.com 1.10,2013-02-17 16:12:00,
2013-02-17 11:27:00,15.0,8.0,29.42,NNW,348,5.0,35.0,73,0.00,,,0.00,weatherlink.com 1.10,2013-02-17 16:27:00,
2013-02-17 11:42:00,15.1,8.0,29.42,SW,223,15.0,36.0,72,0.00,,,0.00,weatherlink.com 1.10,2013-02-17 16:42:00,
2013-02-17 11:57:00,15.3,7.0,29.41,NW,325,12.0,39.0,71,0.00,,,0.00,weatherlink.com 1.10,2013-02-17 16:57:00,
2013-02-17 12:12:00,15.3,7.0,29.41,NW,322,34.0,42.0,69,0.00,,,0.00,weatherlink.com 1.10,2013-02-17 17:12:00,
2013-02-17 12:27:00,15.3,6.0,29.40,WNW,288,28.0,33.0,68,0.00,,,0.00,weatherlink.com 1.10,2013-02-17 17:27:00,
2013-02-17 12:42:00,15.2,6.0,29.40,WSW,251,27.0,38.0,67,0.00,,,0.00,weatherlink.com 1.10,2013-02-17 17:42:00,
2013-02-17 12:57:00,15.2,6.0,29.40,SW,223,16.0,40.0,67,0.00,,,0.00,weatherlink.com 1.10,2013-02-17 17:57:00,
2013-02-17 13:12:00,15.1,6.0,29.40,NW,314,16.0,37.0,66,0.00,,,0.00,weatherlink.com 1.10,2013-02-17 18:12:00,
2013-02-17 13:28:00,15.4,5.0,29.39,West,267,16.0,41.0,64,0.00,,,0.00,weatherlink.com 1.10,2013-02-17 18:28:00,
2013-02-17 13:42:00,15.5,5.0,29.40,WNW,302,23.0,42.0,62,0.00,,,0.00,weatherlink.com 1.10,2013-02-17 18:42:00,
2013-02-17 13:57:00,15.7,4.0,29.39,WNW,295,20.0,42.0,61,0.00,,,0.00,weatherlink.com 1.10,2013-02-17 18:57:00,
2013-02-17 14:12:00,15.9,4.0,29.40,NW,323,17.0,38.0,59,0.00,,,0.00,weatherlink.com 1.10,2013-02-17 19:12:00,
2013-02-17 14:28:00,16.3,4.0,29.38,West,266,17.0,45.0,58,0.00,,,0.00,weatherlink.com 1.10,2013-02-17 19:28:00,
2013-02-17 14:43:00,16.5,3.0,29.39,NNE,14,22.0,45.0,56,0.00,,,0.00,weatherlink.com 1.10,2013-02-17 19:43:00,
2013-02-17 14:58:00,16.1,3.0,29.40,WNW,290,14.0,30.0,56,0.00,,,0.00,weatherlink.com 1.10,2013-02-17 19:58:00,
2013-02-17 15:13:00,15.6,2.0,29.41,WNW,302,21.0,46.0,56,0.00,,,0.00,weatherlink.com 1.10,2013-02-17 20:13:00,
2013-02-17 15:28:00,15.4,3.0,29.42,WNW,296,23.0,30.0,57,0.00,,,0.00,weatherlink.com 1.10,2013-02-17 20:28:00,
2013-02-17 15:43:00,15.0,3.0,29.43,WSW,245,16.0,37.0,58,0.00,,,0.00,weatherlink.com 1.10,2013-02-17 20:43:00,
2013-02-17 15:58:00,14.4,2.0,29.42,WSW,254,16.0,39.0,58,0.00,,,0.00,weatherlink.com 1.10,2013-02-17 20:58:00,
2013-02-17 16:13:00,13.9,2.0,29.44,West,275,12.0,39.0,60,0.00,,,0.00,weatherlink.com 1.10,2013-02-17 21:13:00,
2013-02-17 16:28:00,13.4,2.0,29.44,SW,219,8.0,36.0,61,0.00,,,0.00,weatherlink.com 1.10,2013-02-17 21:28:00,
2013-02-17 16:43:00,13.1,2.0,29.44,WSW,246,20.0,31.0,61,0.00,,,0.00,weatherlink.com 1.10,2013-02-17 21:43:00,
2013-02-17 16:59:00,12.6,2.0,29.46,West,277,22.0,37.0,63,0.00,,,0.00,weatherlink.com 1.10,2013-02-17 21:59:00,
2013-02-17 17:44:00,11.4,2.0,29.49,West,276,18.0,42.0,65,0.00,,,0.00,weatherlink.com 1.10,2013-02-17 22:44:00,
2013-02-17 17:59:00,11.1,2.0,29.50,SW,224,16.0,39.0,66,0.00,,,0.00,weatherlink.com 1.10,2013-02-17 22:59:00,
2013-02-17 18:14:00,9.5,0.0,29.49,West,275,34.0,47.0,65,0.00,,,0.00,weatherlink.com 1.10,2013-02-17 23:14:00,
2013-02-17 18:29:00,9.5,0.0,29.50,WNW,288,18.0,47.0,65,0.00,,,0.00,weatherlink.com 1.10,2013-02-17 23:29:00,
2013-02-17 18:44:00,9.7,0.0,29.50,West,280,25.0,46.0,65,0.00,,,0.00,weatherlink.com 1.10,2013-02-17 23:44:00,
2013-02-17 18:59:00,9.8,0.0,29.49,WNW,294,44.0,52.0,65,0.00,,,0.00,weatherlink.com 1.10,2013-02-17 23:59:00,
2013-02-17 19:14:00,9.9,0.0,29.51,WNW,299,25.0,51.0,65,0.00,,,0.00,weatherlink.com 1.10,2013-02-18 00:14:00,
2013-02-17 19:29:00,10.0,0.0,29.51,West,276,23.0,49.0,65,0.00,,,0.00,weatherlink.com 1.10,2013-02-18 00:29:00,
2013-02-17 19:44:00,9.9,0.0,29.52,NW,320,37.0,51.0,65,0.00,,,0.00,weatherlink.com 1.10,2013-02-18 00:44:00,
2013-02-17 20:00:00,9.9,0.0,29.51,WNW,289,38.0,56.0,65,0.00,,,0.00,weatherlink.com 1.10,2013-02-18 01:00:00,
2013-02-17 20:14:00,9.7,0.0,29.53,NW,315,33.0,51.0,66,0.00,,,0.00,weatherlink.com 1.10,2013-02-18 01:14:00,
2013-02-17 20:30:00,9.7,0.0,29.52,NW,321,45.0,56.0,66,0.00,,,0.00,weatherlink.com 1.10,2013-02-18 01:30:00,
2013-02-17 20:44:00,9.6,0.0,29.54,West,278,29.0,49.0,66,0.00,,,0.00,weatherlink.com 1.10,2013-02-18 01:44:00,
2013-02-17 21:00:00,9.4,0.0,29.55,WNW,290,29.0,48.0,66,0.00,,,0.00,weatherlink.com 1.10,2013-02-18 02:00:00,
2013-02-17 21:15:00,9.3,0.0,29.56,NW,310,25.0,45.0,67,0.00,,,0.00,weatherlink.com 1.10,2013-02-18 02:15:00,
2013-02-17 21:30:00,9.2,0.0,29.56,West,271,32.0,54.0,67,0.00,,,0.00,weatherlink.com 1.10,2013-02-18 02:30:00,
2013-02-17 21:45:00,10.6,2.0,29.58,WNW,298,27.0,37.0,68,0.00,,,0.00,weatherlink.com 1.10,2013-02-18 02:45:00,
2013-02-17 22:00:00,10.5,2.0,29.58,West,259,23.0,48.0,67,0.00,,,0.00,weatherlink.com 1.10,2013-02-18 03:00:00,
2013-02-17 22:15:00,10.5,2.0,29.58,NW,317,14.0,41.0,67,0.00,,,0.00,weatherlink.com 1.10,2013-02-18 03:15:00,
2013-02-17 22:30:00,10.4,2.0,29.59,NW,309,13.0,49.0,68,0.00,,,0.00,weatherlink.com 1.10,2013-02-18 03:30:00,
2013-02-17 22:45:00,10.3,1.0,29.60,SW,231,28.0,32.0,67,0.00,,,0.00,weatherlink.com 1.10,2013-02-18 03:45:00,
2013-02-17 23:00:00,10.2,2.0,29.61,WNW,282,18.0,39.0,68,0.00,,,0.00,weatherlink.com 1.10,2013-02-18 04:00:00,
2013-02-17 23:15:00,10.1,1.0,29.61,West,263,16.0,43.0,68,0.00,,,0.00,weatherlink.com 1.10,2013-02-18 04:15:00,
2013-02-17 23:30:00,9.5,0.0,29.60,North,5,15.0,42.0,66,0.00,,,0.00,weatherlink.com 1.10,2013-02-18 04:30:00,
2013-02-17 23:45:00,9.3,0.0,29.63,WNW,288,33.0,39.0,65,0.00,,,0.00,weatherlink.com 1.10,2013-02-18 04:45:00,